createdAt,value
2023-04-02T00:00:00.687Z,21.96
2023-04-02T00:02:27.246Z,21.97
2023-04-02T00:04:53.785Z,22.00
2023-04-02T00:07:20.167Z,22.00
2023-04-02T00:09:46.553Z,21.99
2023-04-02T00:12:12.926Z,21.98
2023-04-02T00:14:39.611Z,22.00
2023-04-02T00:17:05.949Z,21.98
2023-04-02T00:19:32.347Z,21.95
2023-04-02T00:21:58.779Z,22.03
2023-04-02T00:24:25.117Z,22.03
2023-04-02T00:26:51.454Z,21.99
2023-04-02T00:29:17.778Z,21.94
2023-04-02T00:31:44.229Z,21.98
2023-04-02T00:34:10.573Z,22.01
2023-04-02T00:36:36.944Z,22.01
2023-04-02T00:39:03.538Z,21.98
2023-04-02T00:41:29.892Z,21.95
2023-04-02T00:43:56.285Z,21.97
2023-04-02T00:46:22.660Z,21.95
2023-04-02T00:48:49.024Z,21.98
2023-04-02T00:51:15.420Z,21.97
2023-04-02T00:53:41.801Z,21.94
2023-04-02T00:56:08.311Z,21.91
2023-04-02T00:58:34.696Z,21.92
2023-04-02T01:01:01.104Z,21.94
2023-04-02T01:03:27.616Z,21.99
2023-04-02T01:05:54.128Z,22.00
2023-04-02T01:08:20.466Z,21.97
2023-04-02T01:10:47.002Z,21.96
2023-04-02T01:13:13.458Z,21.96
2023-04-02T01:15:40.078Z,21.94
2023-04-02T01:18:06.517Z,21.98
2023-04-02T01:20:32.984Z,21.95
2023-04-02T01:22:59.424Z,21.98
2023-04-02T01:25:25.784Z,21.96
2023-04-02T01:27:52.164Z,21.90
2023-04-02T01:30:18.560Z,21.92
2023-04-02T01:32:45.066Z,21.96
2023-04-02T01:35:11.587Z,21.95
2023-04-02T01:37:37.975Z,21.96
2023-04-02T01:40:04.282Z,21.93
2023-04-02T01:42:30.667Z,21.98
2023-04-02T01:44:56.997Z,21.95
2023-04-02T01:47:23.323Z,21.95
2023-04-02T01:49:49.653Z,21.93
2023-04-02T01:52:16.038Z,21.93
2023-04-02T01:54:42.379Z,21.92
2023-04-02T01:57:08.763Z,21.93
2023-04-02T01:59:35.151Z,21.95
2023-04-02T02:02:01.605Z,21.97
2023-04-02T02:04:27.982Z,21.95
2023-04-02T02:06:54.356Z,21.94
2023-04-02T02:09:20.693Z,21.92
2023-04-02T02:11:47.124Z,21.89
2023-04-02T02:14:13.459Z,21.91
2023-04-02T02:16:39.881Z,21.91
2023-04-02T02:19:06.256Z,21.95
2023-04-02T02:21:32.585Z,21.88
2023-04-02T02:23:58.994Z,21.88
2023-04-02T02:26:25.375Z,21.95
2023-04-02T02:28:51.795Z,21.92
2023-04-02T02:31:18.186Z,21.90
2023-04-02T02:33:44.593Z,21.92
2023-04-02T02:36:11.029Z,21.91
2023-04-02T02:38:37.385Z,21.93
2023-04-02T02:41:03.744Z,21.96
2023-04-02T02:43:30.178Z,21.93
2023-04-02T02:45:56.595Z,21.95
2023-04-02T02:48:23.005Z,21.98
2023-04-02T02:50:49.337Z,21.91
2023-04-02T02:53:15.705Z,21.93
2023-04-02T02:55:42.074Z,21.88
2023-04-02T02:58:08.426Z,21.90
2023-04-02T03:00:34.745Z,21.92
2023-04-02T03:03:01.244Z,21.88
2023-04-02T03:05:27.716Z,21.83
2023-04-02T03:07:54.076Z,21.87
2023-04-02T03:10:20.396Z,21.91
2023-04-02T03:12:46.769Z,21.87
2023-04-02T03:15:13.089Z,21.94
2023-04-02T03:17:39.409Z,21.90
2023-04-02T03:20:05.945Z,21.88
2023-04-02T03:22:32.286Z,21.88
2023-04-02T03:24:58.669Z,21.91
2023-04-02T03:27:24.992Z,21.94
2023-04-02T03:29:51.368Z,21.94
2023-04-02T03:32:17.680Z,21.89
2023-04-02T03:34:44.025Z,21.91
2023-04-02T03:37:10.380Z,21.96
2023-04-02T03:39:36.912Z,21.91
2023-04-02T03:42:03.396Z,21.91
2023-04-02T03:44:29.770Z,21.92
2023-04-02T03:46:56.089Z,21.95
2023-04-02T03:49:22.410Z,21.93
2023-04-02T03:51:48.716Z,21.93
2023-04-02T03:54:15.058Z,21.89
2023-04-02T03:56:41.392Z,21.91
2023-04-02T03:59:07.730Z,21.87
2023-04-02T04:01:34.127Z,21.94
2023-04-02T04:04:00.569Z,21.89
2023-04-02T04:06:26.933Z,21.90
2023-04-02T04:08:53.382Z,21.89
2023-04-02T04:11:19.755Z,21.86
2023-04-02T04:13:46.145Z,21.83
2023-04-02T04:16:12.571Z,21.88
2023-04-02T04:18:38.999Z,21.87
2023-04-02T04:21:05.315Z,21.86
2023-04-02T04:23:31.643Z,21.90
2023-04-02T04:25:58.028Z,21.86
2023-04-02T04:28:24.486Z,21.86
2023-04-02T04:30:51.008Z,21.87
2023-04-02T04:33:17.547Z,21.91
2023-04-02T04:35:44.054Z,21.89
2023-04-02T04:38:10.647Z,21.90
2023-04-02T04:40:36.996Z,21.89
2023-04-02T04:43:03.365Z,21.90
2023-04-02T04:45:29.708Z,21.84
2023-04-02T04:47:56.064Z,21.87
2023-04-02T04:50:22.419Z,21.86
2023-04-02T04:52:48.959Z,21.82
2023-04-02T04:55:15.924Z,21.86
2023-04-02T04:57:42.339Z,21.87
2023-04-02T05:00:08.645Z,21.85
2023-04-02T05:02:35.042Z,21.82
2023-04-02T05:05:01.493Z,21.83
2023-04-02T05:07:27.907Z,21.78
2023-04-02T05:09:54.228Z,21.80
2023-04-02T05:12:20.630Z,21.77
2023-04-02T05:14:47.017Z,21.79
2023-04-02T05:17:13.333Z,21.80
2023-04-02T05:19:39.639Z,21.83
2023-04-02T05:22:05.947Z,21.83
2023-04-02T05:24:32.268Z,21.83
2023-04-02T05:26:58.591Z,21.80
2023-04-02T05:29:24.907Z,21.79
2023-04-02T05:31:51.222Z,21.87
2023-04-02T05:34:17.612Z,21.78
2023-04-02T05:36:44.211Z,21.86
2023-04-02T05:39:10.782Z,21.85
2023-04-02T05:41:37.104Z,21.80
2023-04-02T05:44:03.493Z,21.79
2023-04-02T05:46:29.916Z,21.69
2023-04-02T05:48:56.323Z,21.65
2023-04-02T05:51:22.691Z,21.71
2023-04-02T05:53:49.056Z,21.79
2023-04-02T05:56:15.414Z,21.66
2023-04-02T05:58:43.917Z,21.77
2023-04-02T06:01:11.825Z,21.81
2023-04-02T06:03:38.209Z,21.76
2023-04-02T06:06:04.809Z,21.76
2023-04-02T06:08:31.204Z,21.70
2023-04-02T06:10:57.562Z,21.78
2023-04-02T06:13:23.905Z,21.78
2023-04-02T06:15:50.296Z,21.73
2023-04-02T06:18:16.623Z,21.75
2023-04-02T06:20:42.971Z,21.81
2023-04-02T06:23:09.286Z,21.85
2023-04-02T06:25:35.771Z,21.81
2023-04-02T06:28:02.220Z,21.84
2023-04-02T06:30:28.719Z,21.80
2023-04-02T06:32:56.437Z,21.83
2023-04-02T06:35:22.865Z,21.79
2023-04-02T06:37:49.418Z,21.73
2023-04-02T06:40:15.759Z,21.77
2023-04-02T06:42:42.121Z,21.78
2023-04-02T06:45:08.485Z,21.79
2023-04-02T06:47:34.855Z,21.80
2023-04-02T06:50:01.413Z,21.77
2023-04-02T06:52:27.735Z,21.77
2023-04-02T06:54:54.126Z,21.75
2023-04-02T06:57:20.608Z,21.80
2023-04-02T06:59:46.996Z,21.78
2023-04-02T07:02:13.440Z,21.71
2023-04-02T07:04:39.830Z,21.79
2023-04-02T07:07:06.187Z,21.78
2023-04-02T07:09:32.557Z,21.83
2023-04-02T07:11:58.941Z,21.95
2023-04-02T07:14:25.329Z,21.87
2023-04-02T07:16:51.670Z,21.83
2023-04-02T07:19:17.993Z,21.91
2023-04-02T07:21:44.307Z,21.84
2023-04-02T07:24:10.819Z,21.93
2023-04-02T07:26:37.147Z,21.93
2023-04-02T07:29:03.535Z,21.88
2023-04-02T07:31:29.933Z,21.88
2023-04-02T07:33:56.318Z,21.91
2023-04-02T07:36:22.782Z,21.93
2023-04-02T07:38:49.190Z,21.91
2023-04-02T07:41:15.499Z,21.89
2023-04-02T07:43:41.918Z,21.92
2023-04-02T07:46:08.343Z,21.93
2023-04-02T07:48:34.701Z,21.94
2023-04-02T07:51:01.032Z,21.92
2023-04-02T07:53:27.416Z,21.95
2023-04-02T07:55:53.816Z,21.89
2023-04-02T07:58:20.156Z,21.87
2023-04-02T08:00:46.472Z,21.83
2023-04-02T08:03:12.943Z,21.85
2023-04-02T08:05:39.382Z,21.90
2023-04-02T08:08:05.699Z,21.92
2023-04-02T08:10:32.025Z,21.86
2023-04-02T08:12:58.414Z,21.85
2023-04-02T08:15:24.764Z,21.83
2023-04-02T08:17:51.164Z,21.84
2023-04-02T08:20:17.585Z,21.85
2023-04-02T08:22:43.993Z,21.83
2023-04-02T08:25:10.489Z,21.84
2023-04-02T08:27:36.819Z,21.80
2023-04-02T08:30:03.224Z,21.78
2023-04-02T08:32:29.629Z,21.80
2023-04-02T08:34:55.985Z,21.85
2023-04-02T08:37:22.461Z,21.78
2023-04-02T08:39:48.794Z,21.84
2023-04-02T08:42:15.118Z,21.80
2023-04-02T08:44:41.442Z,21.80
2023-04-02T08:47:07.755Z,21.78
2023-04-02T08:49:34.102Z,21.80
2023-04-02T08:52:00.422Z,21.89
2023-04-02T08:54:27.816Z,21.87
2023-04-02T08:56:54.430Z,21.90
2023-04-02T08:59:20.912Z,21.85
2023-04-02T09:01:47.257Z,21.89
2023-04-02T09:04:13.694Z,21.87
2023-04-02T09:06:40.055Z,21.81
2023-04-02T09:09:06.439Z,21.87
2023-04-02T09:11:32.784Z,21.87
2023-04-02T09:13:59.103Z,21.82
2023-04-02T09:16:25.516Z,21.81
2023-04-02T09:18:51.936Z,21.77
2023-04-02T09:21:18.306Z,21.81
2023-04-02T09:23:44.701Z,21.84
2023-04-02T09:26:11.050Z,21.82
2023-04-02T09:28:37.375Z,21.80
2023-04-02T09:31:05.506Z,21.79
2023-04-02T09:33:33.142Z,21.75
2023-04-02T09:35:59.503Z,21.81
2023-04-02T09:38:25.821Z,21.77
2023-04-02T09:40:52.362Z,21.81
2023-04-02T09:43:19.082Z,21.77
2023-04-02T09:45:45.409Z,21.85
2023-04-02T09:48:11.824Z,21.82
2023-04-02T09:50:38.296Z,21.87
2023-04-02T09:53:04.833Z,21.89
2023-04-02T09:55:31.228Z,21.84
2023-04-02T09:57:58.012Z,21.82
2023-04-02T10:00:32.154Z,21.87
2023-04-02T10:02:58.983Z,21.82
2023-04-02T10:05:39.306Z,21.81
2023-04-02T10:08:06.742Z,21.85
2023-04-02T10:10:33.494Z,21.84
2023-04-02T10:12:59.996Z,21.82
2023-04-02T10:15:26.386Z,21.84
2023-04-02T10:17:52.888Z,21.74
2023-04-02T10:20:19.391Z,21.85
2023-04-02T10:22:45.746Z,21.83
2023-04-02T10:25:12.126Z,21.83
2023-04-02T10:27:38.499Z,21.81
2023-04-02T10:30:04.859Z,21.81
2023-04-02T10:32:31.282Z,21.79
2023-04-02T10:34:57.710Z,21.81
2023-04-02T10:37:24.239Z,21.80
2023-04-02T10:39:50.555Z,21.80
2023-04-02T10:42:16.917Z,21.82
2023-04-02T10:44:43.316Z,21.84
2023-04-02T10:47:09.703Z,21.71
2023-04-02T10:49:36.148Z,21.74
2023-04-02T10:52:02.745Z,21.80
2023-04-02T10:54:29.055Z,21.83
2023-04-02T10:56:55.375Z,21.81
2023-04-02T10:59:21.846Z,21.77
2023-04-02T11:01:48.204Z,21.79
2023-04-02T11:04:14.622Z,21.82
2023-04-02T11:06:41.002Z,21.82
2023-04-02T11:09:07.410Z,21.80
2023-04-02T11:11:33.789Z,21.84
2023-04-02T11:14:00.211Z,21.81
2023-04-02T11:16:26.624Z,21.83
2023-04-02T11:18:52.969Z,21.82
2023-04-02T11:21:19.285Z,21.84
2023-04-02T11:23:45.613Z,21.81
2023-04-02T11:26:11.990Z,21.79
2023-04-02T11:28:38.381Z,21.81
2023-04-02T11:31:04.790Z,21.76
2023-04-02T11:33:38.139Z,21.77
2023-04-02T11:36:06.460Z,21.78
2023-04-02T11:38:32.922Z,21.84
2023-04-02T11:40:59.285Z,21.80
2023-04-02T11:43:25.704Z,21.74
2023-04-02T11:45:53.473Z,21.81
2023-04-02T11:48:20.040Z,21.80
2023-04-02T11:50:46.817Z,21.81
2023-04-02T11:53:13.358Z,21.76
2023-04-02T11:55:39.959Z,21.67
2023-04-02T11:58:06.495Z,21.73
2023-04-02T12:00:32.855Z,21.72
2023-04-02T12:02:59.246Z,21.70
2023-04-02T12:05:25.715Z,21.75
2023-04-02T12:07:52.317Z,21.78
2023-04-02T12:10:19.113Z,21.75
2023-04-02T12:12:45.461Z,21.71
2023-04-02T12:15:11.919Z,21.75
2023-04-02T12:17:38.431Z,21.74
2023-04-02T12:20:05.949Z,21.77
2023-04-02T12:22:32.435Z,21.77
2023-04-02T12:24:58.761Z,21.78
2023-04-02T12:27:25.160Z,21.71
2023-04-02T12:29:51.497Z,21.72
2023-04-02T12:32:17.857Z,21.80
2023-04-02T12:34:44.485Z,21.73
2023-04-02T12:37:10.867Z,21.72
2023-04-02T12:39:37.212Z,21.75
2023-04-02T12:42:03.551Z,21.76
2023-04-02T12:44:30.019Z,21.67
2023-04-02T12:46:56.375Z,21.70
2023-04-02T12:49:22.750Z,21.73
2023-04-02T12:51:49.331Z,21.75
2023-04-02T12:54:15.735Z,21.65
2023-04-02T12:56:42.075Z,21.60
2023-04-02T12:59:08.452Z,21.68
2023-04-02T13:01:34.894Z,21.70
2023-04-02T13:04:01.345Z,21.66
2023-04-02T13:06:27.751Z,21.73
2023-04-02T13:08:54.322Z,21.70
2023-04-02T13:11:20.691Z,21.70
2023-04-02T13:13:47.123Z,21.69
2023-04-02T13:16:13.609Z,21.71
2023-04-02T13:18:40.064Z,21.71
2023-04-02T13:21:06.470Z,21.66
2023-04-02T13:23:32.847Z,21.63
2023-04-02T13:25:59.199Z,21.71
2023-04-02T13:28:25.661Z,21.77
2023-04-02T13:30:51.977Z,21.71
2023-04-02T13:33:18.384Z,21.71
2023-04-02T13:35:44.785Z,21.69
2023-04-02T13:38:11.145Z,21.71
2023-04-02T13:40:37.879Z,21.70
2023-04-02T13:43:04.546Z,21.71
2023-04-02T13:45:30.913Z,21.72
2023-04-02T13:47:57.325Z,21.68
2023-04-02T13:50:23.865Z,21.62
2023-04-02T13:52:50.247Z,21.65
2023-04-02T13:55:16.633Z,21.70
2023-04-02T13:57:43.001Z,21.66
2023-04-02T14:00:09.372Z,21.66
2023-04-02T14:02:35.849Z,21.65
2023-04-02T14:05:02.273Z,21.74
2023-04-02T14:07:28.597Z,21.69
2023-04-02T14:09:55.032Z,21.71
2023-04-02T14:12:21.678Z,21.71
2023-04-02T14:14:48.073Z,21.72
2023-04-02T14:17:14.445Z,21.71
2023-04-02T14:19:40.911Z,21.67
2023-04-02T14:22:07.291Z,21.65
2023-04-02T14:24:33.710Z,21.64
2023-04-02T14:27:00.107Z,21.64
2023-04-02T14:29:28.212Z,21.72
2023-04-02T14:31:55.682Z,21.69
2023-04-02T14:34:22.169Z,21.65
2023-04-02T14:36:48.543Z,21.67
2023-04-02T14:39:14.941Z,21.74
2023-04-02T14:41:41.265Z,21.75
2023-04-02T14:44:07.645Z,21.70
2023-04-02T14:46:36.826Z,21.63
2023-04-02T14:49:03.742Z,21.63
2023-04-02T14:51:30.127Z,21.66
2023-04-02T14:53:56.522Z,21.64
2023-04-02T14:56:23.056Z,21.62
2023-04-02T14:58:49.385Z,21.59
2023-04-02T15:01:15.733Z,21.67
2023-04-02T15:03:42.119Z,21.55
2023-04-02T15:06:08.455Z,21.56
2023-04-02T15:08:35.006Z,21.63
2023-04-02T15:11:04.266Z,21.60
2023-04-02T15:13:32.297Z,21.61
2023-04-02T15:15:58.670Z,21.63
2023-04-02T15:18:25.064Z,21.66
2023-04-02T15:20:51.433Z,21.62
2023-04-02T15:23:17.774Z,21.65
2023-04-02T15:25:44.143Z,21.61
2023-04-02T15:28:10.566Z,21.65
2023-04-02T15:30:37.252Z,21.63
2023-04-02T15:33:03.927Z,21.56
2023-04-02T15:35:30.394Z,21.57
2023-04-02T15:37:56.868Z,21.62
2023-04-02T15:40:23.236Z,21.55
2023-04-02T15:42:49.697Z,21.59
2023-04-02T15:45:16.296Z,21.48
2023-04-02T15:47:42.720Z,21.50
2023-04-02T15:50:09.368Z,21.48
2023-04-02T15:52:35.745Z,21.48
2023-04-02T15:55:02.103Z,21.48
2023-04-02T15:57:28.466Z,21.57
2023-04-02T15:59:54.812Z,21.52
2023-04-02T16:02:21.331Z,21.53
2023-04-02T16:04:47.663Z,21.49
2023-04-02T16:07:14.040Z,21.52
2023-04-02T16:09:40.427Z,21.53
2023-04-02T16:12:06.826Z,21.54
2023-04-02T16:14:33.200Z,21.50
2023-04-02T16:17:02.106Z,21.50
2023-04-02T16:19:30.284Z,21.50
2023-04-02T16:21:56.648Z,21.47
2023-04-02T16:24:23.007Z,21.52
2023-04-02T16:26:50.399Z,21.50
2023-04-02T16:29:18.382Z,21.54
2023-04-02T16:31:44.755Z,21.54
2023-04-02T16:34:11.157Z,21.49
2023-04-02T16:36:37.557Z,21.47
2023-04-02T16:39:04.162Z,21.46
2023-04-02T16:41:30.512Z,21.45
2023-04-02T16:43:57.056Z,21.49
2023-04-02T16:46:38.333Z,21.40
2023-04-02T16:49:05.878Z,21.42
2023-04-02T16:51:32.716Z,21.47
2023-04-02T16:54:02.321Z,21.42
2023-04-02T16:56:29.011Z,21.44
2023-04-02T16:58:55.349Z,21.45
2023-04-02T17:01:21.730Z,21.44
2023-04-02T17:03:48.293Z,21.43
2023-04-02T17:06:14.988Z,21.39
2023-04-02T17:08:41.370Z,21.36
2023-04-02T17:11:07.762Z,21.45
2023-04-02T17:13:34.165Z,21.40
2023-04-02T17:16:00.526Z,21.49
2023-04-02T17:18:26.902Z,21.47
2023-04-02T17:20:53.244Z,21.48
2023-04-02T17:23:19.562Z,21.45
2023-04-02T17:25:45.962Z,21.46
2023-04-02T17:28:12.287Z,21.45
2023-04-02T17:30:39.026Z,21.52
2023-04-02T17:33:05.473Z,21.44
2023-04-02T17:35:31.860Z,21.41
2023-04-02T17:37:58.320Z,21.45
2023-04-02T17:40:24.657Z,21.44
2023-04-02T17:42:51.025Z,21.44
2023-04-02T17:45:17.405Z,21.42
2023-04-02T17:47:43.791Z,21.46
2023-04-02T17:50:10.178Z,21.45
2023-04-02T17:52:36.577Z,21.38
2023-04-02T17:55:02.906Z,21.39
2023-04-02T17:57:31.424Z,21.44
2023-04-02T17:59:57.948Z,21.41
2023-04-02T18:02:24.440Z,21.41
2023-04-02T18:04:50.803Z,21.36
2023-04-02T18:07:17.116Z,21.35
2023-04-02T18:09:43.489Z,21.39
2023-04-02T18:12:09.848Z,21.30
2023-04-02T18:14:36.180Z,21.33
2023-04-02T18:17:02.552Z,21.38
2023-04-02T18:19:30.562Z,21.40
2023-04-02T18:21:58.098Z,21.38
2023-04-02T18:24:24.856Z,21.37
2023-04-02T18:26:51.292Z,21.42
2023-04-02T18:29:17.664Z,21.45
2023-04-02T18:31:44.039Z,21.43
2023-04-02T18:34:10.656Z,21.42
2023-04-02T18:36:37.026Z,21.36
2023-04-02T18:39:03.425Z,21.40
2023-04-02T18:41:29.742Z,21.37
2023-04-02T18:43:57.516Z,21.45
2023-04-02T18:46:24.082Z,21.42
2023-04-02T18:48:50.476Z,21.36
2023-04-02T18:51:16.992Z,21.44
2023-04-02T18:53:43.372Z,21.37
2023-04-02T18:56:11.893Z,21.41
2023-04-02T18:58:38.414Z,21.35
2023-04-02T19:01:04.820Z,21.30
2023-04-02T19:03:31.251Z,21.30
2023-04-02T19:05:57.869Z,21.40
2023-04-02T19:08:24.315Z,21.35
2023-04-02T19:10:50.696Z,21.32
2023-04-02T19:13:17.084Z,21.34
2023-04-02T19:15:43.444Z,21.36
2023-04-02T19:18:09.847Z,21.35
2023-04-02T19:20:36.353Z,21.33
2023-04-02T19:23:02.930Z,21.36
2023-04-02T19:25:29.332Z,21.41
2023-04-02T19:27:55.841Z,21.32
2023-04-02T19:30:22.155Z,21.34
2023-04-02T19:32:48.545Z,21.32
2023-04-02T19:35:14.936Z,21.38
2023-04-02T19:37:41.275Z,21.38
2023-04-02T19:40:07.678Z,21.32
2023-04-02T19:42:34.085Z,21.38
2023-04-02T19:45:00.491Z,21.35
2023-04-02T19:47:27.113Z,21.34
2023-04-02T19:49:53.526Z,21.37
2023-04-02T19:52:19.907Z,21.33
2023-04-02T19:54:46.256Z,21.32
2023-04-02T19:57:12.618Z,21.41
2023-04-02T19:59:39.006Z,21.36
2023-04-02T20:02:05.375Z,21.23
2023-04-02T20:04:31.963Z,21.36
2023-04-02T20:06:58.335Z,21.29
2023-04-02T20:09:24.697Z,21.26
2023-04-02T20:11:51.121Z,21.29
2023-04-02T20:14:17.524Z,21.29
2023-04-02T20:16:45.382Z,21.25
2023-04-02T20:19:12.238Z,21.25
2023-04-02T20:21:38.697Z,21.27
2023-04-02T20:24:05.275Z,21.31
2023-04-02T20:26:31.646Z,21.27
2023-04-02T20:28:57.978Z,21.33
2023-04-02T20:31:24.401Z,21.25
2023-04-02T20:33:50.930Z,21.33
2023-04-02T20:36:17.320Z,21.26
2023-04-02T20:38:43.663Z,21.33
2023-04-02T20:41:10.097Z,21.25
2023-04-02T20:43:36.514Z,21.32
2023-04-02T20:46:02.957Z,21.27
2023-04-02T20:48:29.324Z,21.26
2023-04-02T20:50:55.768Z,21.28
2023-04-02T20:53:22.154Z,21.30
2023-04-02T20:55:48.487Z,21.29
2023-04-02T20:58:14.811Z,21.25
2023-04-02T21:00:41.191Z,21.24
2023-04-02T21:03:07.787Z,21.30
2023-04-02T21:05:34.242Z,21.30
2023-04-02T21:08:00.682Z,21.26
2023-04-02T21:10:27.029Z,21.24
2023-04-02T21:12:53.370Z,21.28
2023-04-02T21:15:19.827Z,21.25
2023-04-02T21:17:46.223Z,21.24
2023-04-02T21:20:12.745Z,21.26
2023-04-02T21:22:39.178Z,21.22
2023-04-02T21:25:05.522Z,21.23
2023-04-02T21:27:31.824Z,21.25
2023-04-02T21:29:58.163Z,21.29
2023-04-02T21:32:24.588Z,21.27
2023-04-02T21:34:50.941Z,21.27
2023-04-02T21:37:17.282Z,21.25
2023-04-02T21:39:43.641Z,21.28
2023-04-02T21:42:10.091Z,21.33
2023-04-02T21:44:36.453Z,21.25
2023-04-02T21:47:02.808Z,21.29
2023-04-02T21:49:29.249Z,21.26
2023-04-02T21:51:55.838Z,21.24
2023-04-02T21:54:22.174Z,21.30
2023-04-02T21:56:48.599Z,21.26
2023-04-02T21:59:14.964Z,21.25
2023-04-02T22:01:41.369Z,21.24
2023-04-02T22:04:07.991Z,21.24
2023-04-02T22:06:34.393Z,21.27
2023-04-02T22:09:00.781Z,21.27
2023-04-02T22:11:27.123Z,21.26
2023-04-02T22:13:53.584Z,21.26
2023-04-02T22:16:19.948Z,21.28
2023-04-02T22:18:46.336Z,21.22
2023-04-02T22:21:12.710Z,21.24
2023-04-02T22:23:39.099Z,21.22
2023-04-02T22:26:05.541Z,21.20
2023-04-02T22:28:31.915Z,21.20
2023-04-02T22:30:58.276Z,21.22
2023-04-02T22:33:24.631Z,21.21
2023-04-02T22:35:51.058Z,21.23
2023-04-02T22:38:17.398Z,21.20
2023-04-02T22:40:43.771Z,21.24
2023-04-02T22:43:10.096Z,21.22
2023-04-02T22:45:36.466Z,21.19
2023-04-02T22:48:02.926Z,21.21
2023-04-02T22:50:29.247Z,21.21
2023-04-02T22:52:55.609Z,21.25
2023-04-02T22:55:21.988Z,21.20
2023-04-02T22:57:48.385Z,21.25
2023-04-02T23:00:14.768Z,21.19
2023-04-02T23:02:41.132Z,21.22
2023-04-02T23:05:07.488Z,21.21
2023-04-02T23:07:33.889Z,21.22
2023-04-02T23:10:00.271Z,21.18
2023-04-02T23:12:26.588Z,21.15
2023-04-02T23:14:52.981Z,21.21
2023-04-02T23:17:19.399Z,21.19
2023-04-02T23:19:45.771Z,21.22
2023-04-02T23:22:12.311Z,21.24
2023-04-02T23:24:38.728Z,21.21
2023-04-02T23:27:05.049Z,21.15
2023-04-02T23:29:31.426Z,21.14
2023-04-02T23:31:58.117Z,21.20
2023-04-02T23:34:24.460Z,21.18
2023-04-02T23:36:50.770Z,21.19
2023-04-02T23:39:17.117Z,21.20
2023-04-02T23:41:43.457Z,21.21
2023-04-02T23:44:09.767Z,21.20
2023-04-02T23:46:36.155Z,21.23
2023-04-02T23:49:02.580Z,21.19
2023-04-02T23:51:28.902Z,21.20
2023-04-02T23:53:55.265Z,21.18
2023-04-02T23:56:21.620Z,21.17
2023-04-02T23:58:47.976Z,21.11
